createdAt,value
2022-09-26T00:01:17.060Z,7.28
2022-09-26T00:03:46.062Z,9.90
2022-09-26T00:06:13.226Z,5.28
2022-09-26T00:08:40.491Z,5.97
2022-09-26T00:11:08.795Z,2.60
2022-09-26T00:13:41.121Z,4.93
2022-09-26T00:16:10.329Z,5.72
2022-09-26T00:18:37.732Z,4.15
2022-09-26T00:21:05.913Z,4.85
2022-09-26T00:23:32.850Z,7.85
2022-09-26T00:26:00.099Z,5.03
2022-09-26T00:28:27.983Z,7.60
2022-09-26T00:30:55.020Z,6.75
2022-09-26T00:33:21.730Z,6.95
2022-09-26T00:35:55.702Z,8.70
2022-09-26T00:38:23.025Z,4.95
2022-09-26T00:40:50.520Z,5.40
2022-09-26T00:43:29.590Z,6.97
2022-09-26T00:46:00.190Z,5.65
2022-09-26T00:48:28.493Z,4.20
2022-09-26T00:50:55.434Z,6.97
2022-09-26T00:53:28.379Z,5.80
2022-09-26T00:56:02.908Z,4.13
2022-09-26T00:58:38.428Z,4.97
2022-09-26T01:01:06.293Z,5.65
2022-09-26T01:03:34.689Z,3.95
2022-09-26T01:06:01.777Z,6.38
2022-09-26T01:08:36.769Z,4.60
2022-09-26T01:11:04.248Z,5.50
2022-09-26T01:13:34.377Z,7.10
2022-09-26T01:16:01.252Z,5.88
2022-09-26T01:18:28.201Z,4.45
2022-09-26T01:21:13.608Z,6.53
2022-09-26T01:23:58.760Z,4.53
2022-09-26T01:26:46.583Z,3.30
2022-09-26T01:29:39.006Z,3.13
2022-09-26T01:32:50.376Z,7.85
2022-09-26T01:35:44.862Z,7.60
2022-09-26T01:38:26.585Z,5.63
2022-09-26T01:41:19.181Z,6.25
2022-09-26T01:44:22.084Z,4.32
2022-09-26T01:46:56.184Z,5.45
2022-09-26T01:49:34.115Z,6.90
2022-09-26T01:52:38.922Z,10.18
2022-09-26T01:55:11.555Z,5.50
2022-09-26T01:58:01.929Z,7.22
2022-09-26T02:00:29.793Z,5.07
2022-09-26T02:02:58.696Z,4.53
2022-09-26T02:05:36.068Z,7.38
2022-09-26T02:08:12.371Z,5.78
2022-09-26T02:10:47.079Z,5.28
2022-09-26T02:13:24.667Z,5.78
2022-09-26T02:15:56.227Z,4.65
2022-09-26T02:18:37.893Z,6.25
2022-09-26T02:21:12.874Z,10.10
2022-09-26T02:23:39.602Z,6.40
2022-09-26T02:26:06.646Z,6.63
2022-09-26T02:28:33.543Z,6.80
2022-09-26T02:31:02.299Z,7.43
2022-09-26T02:33:29.657Z,8.48
2022-09-26T02:35:56.445Z,5.55
2022-09-26T02:38:26.561Z,4.80
2022-09-26T02:41:09.446Z,11.43
2022-09-26T02:44:07.166Z,8.63
2022-09-26T02:46:52.068Z,8.05
2022-09-26T02:49:24.601Z,7.80
2022-09-26T02:52:07.356Z,6.90
2022-09-26T02:54:56.282Z,10.07
2022-09-26T02:57:34.932Z,11.40
2022-09-26T03:00:17.555Z,10.27
2022-09-26T03:02:50.374Z,7.30
2022-09-26T03:05:20.866Z,4.93
2022-09-26T03:08:04.882Z,8.77
2022-09-26T03:10:32.968Z,7.80
2022-09-26T03:13:10.476Z,9.00
2022-09-26T03:15:38.752Z,5.10
2022-09-26T03:18:10.436Z,4.68
2022-09-26T03:20:37.141Z,7.82
2022-09-26T03:23:04.592Z,5.18
2022-09-26T03:25:31.401Z,7.25
2022-09-26T03:28:02.098Z,6.63
2022-09-26T03:30:32.418Z,6.15
2022-09-26T03:32:59.060Z,8.25
2022-09-26T03:35:25.806Z,10.38
2022-09-26T03:37:52.716Z,5.40
2022-09-26T03:40:19.596Z,6.10
2022-09-26T03:42:47.927Z,5.45
2022-09-26T03:45:14.679Z,6.28
2022-09-26T03:47:41.907Z,4.10
2022-09-26T03:50:09.362Z,9.98
2022-09-26T03:52:36.543Z,6.13
2022-09-26T03:55:04.213Z,7.63
2022-09-26T03:57:30.849Z,5.75
2022-09-26T03:59:57.513Z,6.75
2022-09-26T04:02:24.253Z,5.07
2022-09-26T04:04:50.960Z,5.38
2022-09-26T04:07:17.591Z,4.25
2022-09-26T04:09:44.235Z,6.03
2022-09-26T04:12:10.912Z,9.95
2022-09-26T04:14:37.589Z,5.68
2022-09-26T04:17:04.280Z,5.18
2022-09-26T04:19:31.679Z,7.45
2022-09-26T04:21:59.407Z,4.78
2022-09-26T04:24:26.069Z,6.72
2022-09-26T04:26:52.742Z,3.97
2022-09-26T04:29:19.669Z,5.72
2022-09-26T04:31:46.476Z,7.68
2022-09-26T04:34:14.875Z,5.85
2022-09-26T04:36:42.488Z,5.95
2022-09-26T04:39:09.242Z,9.18
2022-09-26T04:41:36.716Z,3.92
2022-09-26T04:44:03.620Z,7.03
2022-09-26T04:46:31.487Z,7.57
2022-09-26T04:49:00.297Z,5.13
2022-09-26T04:51:28.463Z,3.88
2022-09-26T04:53:55.852Z,7.63
2022-09-26T04:56:24.692Z,4.55
2022-09-26T04:58:52.187Z,6.03
2022-09-26T05:01:20.739Z,5.55
2022-09-26T05:03:47.952Z,14.52
2022-09-26T05:06:15.829Z,5.75
2022-09-26T05:08:46.285Z,7.65
2022-09-26T05:11:14.048Z,3.03
2022-09-26T05:13:40.757Z,6.40
2022-09-26T05:16:11.129Z,6.20
2022-09-26T05:18:39.145Z,5.72
2022-09-26T05:21:07.440Z,7.82
2022-09-26T05:23:53.628Z,6.80
2022-09-26T05:26:26.079Z,5.53
2022-09-26T05:29:06.896Z,5.50
2022-09-26T05:34:05.994Z,7.30
2022-09-26T05:36:32.876Z,4.50
2022-09-26T05:39:00.192Z,7.55
2022-09-26T05:41:33.787Z,6.40
2022-09-26T05:44:00.564Z,8.70
2022-09-26T05:46:28.318Z,3.97
2022-09-26T05:48:55.769Z,4.45
2022-09-26T05:51:23.441Z,6.07
2022-09-26T05:53:50.440Z,6.65
2022-09-26T05:56:19.667Z,6.95
2022-09-26T05:58:47.139Z,8.60
2022-09-26T06:01:18.525Z,5.60
2022-09-26T06:03:47.003Z,5.90
2022-09-26T06:06:15.608Z,6.03
2022-09-26T06:08:42.980Z,4.78
2022-09-26T06:11:13.838Z,6.63
2022-09-26T06:13:44.042Z,5.82
2022-09-26T06:16:14.097Z,6.35
2022-09-26T06:18:43.925Z,4.38
2022-09-26T06:21:12.662Z,3.65
2022-09-26T06:23:39.591Z,6.07
2022-09-26T06:26:10.534Z,3.33
2022-09-26T06:28:37.255Z,3.53
2022-09-26T06:31:11.588Z,6.78
2022-09-26T06:33:38.364Z,4.93
2022-09-26T06:36:07.798Z,4.68
2022-09-26T06:38:35.193Z,5.05
2022-09-26T06:41:02.250Z,6.82
2022-09-26T06:43:29.208Z,4.38
2022-09-26T06:45:55.889Z,6.90
2022-09-26T06:48:24.806Z,5.40
2022-09-26T06:50:57.038Z,4.72
2022-09-26T06:53:23.734Z,3.78
2022-09-26T06:55:50.388Z,11.15
2022-09-26T06:58:17.307Z,8.57
2022-09-26T07:00:44.208Z,7.25
2022-09-26T07:03:11.957Z,6.15
2022-09-26T07:05:39.719Z,4.97
2022-09-26T07:08:06.675Z,5.40
2022-09-26T07:10:36.050Z,4.82
2022-09-26T07:13:07.145Z,5.70
2022-09-26T07:15:36.012Z,6.15
2022-09-26T07:18:06.408Z,5.70
2022-09-26T07:20:36.791Z,6.70
2022-09-26T07:23:05.445Z,4.47
2022-09-26T07:25:33.275Z,5.03
2022-09-26T07:28:01.001Z,7.88
2022-09-26T07:30:28.357Z,5.50
2022-09-26T07:33:03.647Z,4.88
2022-09-26T07:35:35.380Z,6.60
2022-09-26T07:38:03.051Z,6.35
2022-09-26T07:40:29.751Z,6.53
2022-09-26T07:43:20.081Z,5.32
2022-09-26T07:46:05.913Z,3.80
2022-09-26T07:48:51.246Z,6.05
2022-09-26T07:51:19.703Z,6.60
2022-09-26T07:53:46.709Z,4.88
2022-09-26T07:56:13.413Z,6.85
2022-09-26T07:58:46.305Z,3.88
2022-09-26T08:01:15.103Z,5.70
2022-09-26T08:03:43.543Z,6.25
2022-09-26T08:06:12.828Z,5.38
2022-09-26T08:08:41.141Z,5.65
2022-09-26T08:11:18.088Z,8.40
2022-09-26T08:13:45.646Z,4.60
2022-09-26T08:16:19.530Z,5.40
2022-09-26T08:18:46.974Z,6.25
2022-09-26T08:21:14.078Z,5.28
2022-09-26T08:23:40.768Z,8.35
2022-09-26T08:26:07.968Z,6.00
2022-09-26T08:28:36.133Z,6.70
2022-09-26T08:31:05.091Z,9.27
2022-09-26T08:33:34.922Z,3.33
2022-09-26T08:36:10.044Z,5.50
2022-09-26T08:38:37.749Z,9.32
2022-09-26T08:41:16.979Z,9.07
2022-09-26T08:44:01.558Z,6.60
2022-09-26T08:46:51.531Z,4.60
2022-09-26T08:49:29.878Z,6.53
2022-09-26T08:51:59.358Z,6.95
2022-09-26T08:54:37.813Z,8.25
2022-09-26T08:57:13.985Z,5.88
2022-09-26T08:59:47.075Z,11.50
2022-09-26T09:02:31.609Z,8.65
2022-09-26T09:05:17.329Z,7.85
2022-09-26T09:07:49.089Z,15.57
2022-09-26T09:13:00.848Z,7.47
2022-09-26T09:15:33.345Z,6.45
2022-09-26T09:18:08.798Z,4.32
2022-09-26T09:21:07.764Z,8.63
2022-09-26T09:24:03.750Z,8.10
2022-09-26T09:32:12.821Z,6.60
2022-09-26T09:34:42.492Z,11.10
2022-09-26T09:37:19.067Z,5.65
2022-09-26T09:39:49.072Z,6.60
2022-09-26T09:42:45.652Z,7.25
2022-09-26T09:45:25.399Z,7.13
2022-09-26T09:47:52.360Z,4.90
2022-09-26T09:50:26.606Z,5.35
2022-09-26T09:53:36.600Z,8.35
2022-09-26T09:56:09.013Z,6.03
2022-09-26T09:59:03.731Z,8.93
2022-09-26T10:01:43.932Z,8.02
2022-09-26T10:04:43.933Z,9.52
2022-09-26T10:07:11.085Z,9.27
2022-09-26T10:09:43.743Z,7.95
2022-09-26T10:12:17.078Z,4.32
2022-09-26T10:15:02.085Z,5.20
2022-09-26T10:17:29.588Z,8.52
2022-09-26T10:19:56.653Z,4.72
2022-09-26T10:22:30.417Z,5.22
2022-09-26T10:25:08.449Z,9.68
2022-09-26T10:27:41.027Z,8.90
2022-09-26T10:30:25.830Z,10.57
2022-09-26T10:32:57.173Z,5.93
2022-09-26T10:35:40.185Z,6.38
2022-09-26T10:38:20.807Z,10.43
2022-09-26T10:40:55.121Z,8.73
2022-09-26T10:43:25.086Z,5.25
2022-09-26T10:45:55.896Z,5.93
2022-09-26T10:48:34.217Z,5.20
2022-09-26T10:51:01.857Z,5.10
2022-09-26T10:53:36.222Z,7.25
2022-09-26T10:56:13.415Z,5.10
2022-09-26T10:58:45.949Z,6.95
2022-09-26T11:01:26.486Z,4.28
2022-09-26T11:03:59.945Z,6.03
2022-09-26T11:06:34.052Z,5.80
2022-09-26T11:09:03.203Z,5.13
2022-09-26T11:11:33.997Z,6.55
2022-09-26T11:14:07.474Z,6.10
2022-09-26T11:16:49.207Z,4.03
2022-09-26T11:19:24.941Z,6.15
2022-09-26T11:22:19.374Z,6.10
2022-09-26T11:25:03.264Z,3.40
2022-09-26T11:27:53.477Z,7.00
2022-09-26T11:30:21.916Z,11.88
2022-09-26T11:32:55.232Z,3.75
2022-09-26T11:35:46.639Z,4.90
2022-09-26T11:38:28.698Z,3.10
2022-09-26T11:40:59.781Z,5.88
2022-09-26T11:43:29.578Z,6.22
2022-09-26T11:46:34.942Z,5.32
2022-09-26T11:49:20.076Z,3.90
2022-09-26T11:52:04.857Z,4.82
2022-09-26T11:54:50.475Z,8.30
2022-09-26T11:57:28.696Z,4.55
2022-09-26T12:00:12.020Z,5.50
2022-09-26T12:03:22.770Z,4.85
2022-09-26T12:05:50.317Z,4.82
2022-09-26T12:08:29.357Z,5.28
2022-09-26T12:11:01.552Z,5.38
2022-09-26T12:13:34.943Z,6.97
2022-09-26T12:16:01.688Z,5.40
2022-09-26T12:18:38.025Z,6.93
2022-09-26T12:21:16.661Z,8.57
2022-09-26T12:23:54.329Z,6.03
2022-09-26T12:26:44.928Z,9.63
2022-09-26T12:29:31.513Z,6.78
2022-09-26T12:32:16.993Z,5.10
2022-09-26T12:34:46.398Z,6.18
2022-09-26T12:37:34.162Z,5.30
2022-09-26T12:40:10.823Z,4.45
2022-09-26T12:42:43.379Z,6.32
2022-09-26T12:45:26.945Z,4.47
2022-09-26T12:48:29.696Z,5.80
2022-09-26T12:51:16.190Z,5.22
2022-09-26T12:54:20.252Z,4.50
2022-09-26T12:57:04.247Z,4.50
2022-09-26T12:59:43.152Z,5.80
2022-09-26T13:02:57.574Z,5.00
2022-09-26T13:06:06.252Z,5.53
2022-09-26T13:08:44.052Z,4.85
2022-09-26T13:11:19.422Z,4.32
2022-09-26T13:13:46.888Z,4.60
2022-09-26T13:16:19.939Z,3.33
2022-09-26T13:19:02.650Z,3.75
2022-09-26T13:22:02.160Z,3.30
2022-09-26T13:24:48.020Z,2.70
2022-09-26T13:27:21.082Z,3.65
2022-09-26T13:29:57.737Z,2.80
2022-09-26T13:32:49.026Z,3.33
2022-09-26T13:35:24.985Z,3.22
2022-09-26T13:38:10.078Z,3.53
2022-09-26T13:40:57.502Z,2.60
2022-09-26T13:43:43.513Z,4.82
2022-09-26T13:46:27.232Z,3.20
2022-09-26T13:49:24.985Z,2.35
2022-09-26T13:52:15.974Z,2.53
2022-09-26T13:55:00.333Z,3.58
2022-09-26T13:57:49.677Z,3.63
2022-09-26T14:00:31.388Z,3.90
2022-09-26T14:03:10.091Z,4.88
2022-09-26T14:05:46.413Z,5.07
2022-09-26T14:08:44.160Z,2.92
2022-09-26T14:11:19.946Z,3.15
2022-09-26T14:13:48.609Z,3.83
2022-09-26T14:16:36.653Z,4.20
2022-09-26T14:19:17.965Z,4.20
2022-09-26T14:22:17.910Z,2.63
2022-09-26T14:24:51.625Z,4.18
2022-09-26T14:27:18.243Z,3.03
2022-09-26T14:30:09.704Z,6.60
2022-09-26T14:32:39.448Z,7.00
2022-09-26T14:35:24.869Z,7.45
2022-09-26T14:37:59.450Z,4.72
2022-09-26T14:40:33.437Z,6.18
2022-09-26T14:43:13.701Z,5.97
2022-09-26T14:45:41.210Z,6.95
2022-09-26T14:48:36.005Z,11.18
2022-09-26T14:51:11.427Z,6.45
2022-09-26T14:53:50.193Z,5.88
2022-09-26T14:56:37.128Z,4.28
2022-09-26T14:59:25.513Z,3.70
2022-09-26T15:01:54.942Z,7.47
2022-09-26T15:04:30.849Z,6.68
2022-09-26T15:07:21.011Z,6.40
2022-09-26T15:09:58.629Z,7.07
2022-09-26T15:12:39.875Z,7.85
2022-09-26T15:15:22.993Z,23.17
2022-09-26T15:17:56.386Z,17.40
2022-09-26T15:20:25.217Z,9.00
2022-09-26T15:22:57.139Z,9.45
2022-09-26T15:25:30.295Z,5.88
2022-09-26T15:27:57.984Z,8.35
2022-09-26T15:30:33.301Z,6.65
2022-09-26T15:33:05.908Z,5.78
2022-09-26T15:35:33.944Z,7.13
2022-09-26T15:38:02.865Z,4.30
2022-09-26T15:40:31.409Z,6.10
2022-09-26T15:43:12.452Z,4.53
2022-09-26T15:45:58.391Z,5.70
2022-09-26T15:48:25.322Z,8.65
2022-09-26T15:51:00.675Z,12.68
2022-09-26T15:53:48.415Z,10.68
2022-09-26T15:56:35.971Z,10.23
2022-09-26T15:59:17.337Z,12.27
2022-09-26T16:01:48.791Z,10.35
2022-09-26T16:04:27.243Z,10.02
2022-09-26T16:07:17.581Z,13.98
2022-09-26T16:09:45.803Z,11.30
2022-09-26T16:12:15.637Z,11.25
2022-09-26T16:14:46.874Z,9.13
2022-09-26T16:17:32.365Z,13.45
2022-09-26T16:20:22.007Z,15.13
2022-09-26T16:22:51.398Z,12.13
2022-09-26T16:25:20.887Z,12.82
2022-09-26T16:27:49.568Z,13.68
2022-09-26T16:30:28.081Z,14.05
2022-09-26T16:32:56.875Z,13.60
2022-09-26T16:35:29.538Z,10.20
2022-09-26T16:38:05.457Z,11.45
2022-09-26T16:40:34.546Z,14.68
2022-09-26T16:43:04.056Z,15.80
2022-09-26T16:45:30.935Z,13.00
2022-09-26T16:47:57.604Z,12.20
2022-09-26T16:50:28.877Z,10.90
2022-09-26T16:52:55.987Z,16.52
2022-09-26T16:55:24.217Z,17.75
2022-09-26T16:57:58.202Z,19.60
2022-09-26T17:00:51.336Z,23.25
2022-09-26T17:03:25.416Z,23.33
2022-09-26T17:05:55.477Z,18.75
2022-09-26T17:08:23.105Z,15.52
2022-09-26T17:10:49.949Z,14.35
2022-09-26T17:13:30.976Z,22.98
2022-09-26T17:16:01.068Z,15.63
2022-09-26T17:18:29.419Z,17.27
2022-09-26T17:20:56.883Z,16.33
2022-09-26T17:23:41.117Z,17.98
2022-09-26T17:26:15.800Z,20.75
2022-09-26T17:28:42.835Z,19.27
2022-09-26T17:31:18.941Z,12.25
2022-09-26T17:33:47.258Z,12.13
2022-09-26T17:36:28.424Z,15.13
2022-09-26T17:38:59.137Z,14.50
2022-09-26T17:44:00.019Z,16.10
2022-09-26T17:46:27.707Z,15.93
2022-09-26T17:48:55.889Z,17.35
2022-09-26T17:51:23.833Z,16.63
2022-09-26T17:53:52.371Z,16.73
2022-09-26T17:56:19.904Z,17.38
2022-09-26T17:58:48.420Z,20.48
2022-09-26T18:01:24.916Z,15.30
2022-09-26T18:03:59.721Z,10.85
2022-09-26T18:06:31.580Z,14.13
2022-09-26T18:09:05.144Z,11.90
2022-09-26T18:11:34.296Z,11.70
2022-09-26T18:14:04.539Z,12.68
2022-09-26T18:16:31.165Z,13.90
2022-09-26T18:18:57.824Z,10.07
2022-09-26T18:21:26.235Z,9.65
2022-09-26T18:24:00.817Z,10.00
2022-09-26T18:26:31.853Z,10.52
2022-09-26T18:29:02.325Z,6.47
2022-09-26T18:31:31.329Z,11.80
2022-09-26T18:33:58.210Z,14.25
2022-09-26T18:36:26.469Z,17.15
2022-09-26T18:38:53.212Z,15.07
2022-09-26T18:41:24.629Z,11.15
2022-09-26T18:43:52.333Z,11.93
2022-09-26T18:46:19.572Z,10.20
2022-09-26T18:48:47.239Z,17.13
2022-09-26T18:51:14.504Z,13.68
2022-09-26T18:53:41.290Z,16.40
2022-09-26T18:56:27.714Z,14.32
2022-09-26T18:58:55.077Z,11.02
2022-09-26T19:01:33.051Z,13.70
2022-09-26T19:04:03.599Z,11.68
2022-09-26T19:06:37.343Z,12.82
2022-09-26T19:09:15.326Z,14.63
2022-09-26T19:11:42.519Z,14.02
2022-09-26T19:14:18.982Z,7.57
2022-09-26T19:16:48.166Z,12.10
2022-09-26T19:19:14.901Z,14.07
2022-09-26T19:21:44.461Z,10.27
2022-09-26T19:24:36.749Z,8.55
2022-09-26T19:27:26.437Z,12.10
2022-09-26T19:30:06.875Z,11.95
2022-09-26T19:32:39.833Z,13.77
2022-09-26T19:35:25.546Z,9.30
2022-09-26T19:37:52.980Z,8.27
2022-09-26T19:40:22.526Z,7.32
2022-09-26T19:42:49.992Z,8.68
2022-09-26T19:45:18.042Z,7.05
2022-09-26T19:47:48.269Z,4.88
2022-09-26T19:50:21.412Z,6.53
2022-09-26T19:52:50.460Z,6.07
2022-09-26T19:55:26.388Z,8.77
2022-09-26T19:57:53.946Z,8.10
2022-09-26T20:00:20.730Z,5.00
2022-09-26T20:02:50.398Z,10.00
2022-09-26T20:05:19.100Z,5.50
2022-09-26T20:07:46.521Z,8.30
2022-09-26T20:10:17.908Z,7.60
2022-09-26T20:12:45.523Z,10.73
2022-09-26T20:15:13.335Z,7.82
2022-09-26T20:17:43.075Z,10.70
2022-09-26T20:20:18.857Z,9.50
2022-09-26T20:22:46.358Z,4.95
2022-09-26T20:25:27.105Z,8.02
2022-09-26T20:27:55.214Z,9.73
2022-09-26T20:30:41.311Z,11.43
2022-09-26T20:33:10.440Z,12.85
2022-09-26T20:35:42.144Z,8.13
2022-09-26T20:43:14.299Z,13.93
2022-09-26T20:45:43.898Z,8.13
2022-09-26T20:48:20.553Z,10.52
2022-09-26T20:50:48.433Z,7.85
2022-09-26T20:53:19.745Z,10.65
2022-09-26T20:55:47.041Z,7.05
2022-09-26T20:58:14.260Z,13.48
2022-09-26T21:00:43.005Z,4.55
2022-09-26T21:03:15.630Z,5.82
2022-09-26T21:05:42.770Z,9.55
2022-09-26T21:08:27.582Z,6.10
2022-09-26T21:10:56.028Z,7.95
2022-09-26T21:13:23.496Z,7.78
2022-09-26T21:15:51.336Z,6.60
2022-09-26T21:18:28.383Z,8.63
2022-09-26T21:21:01.583Z,7.22
2022-09-26T21:23:28.210Z,8.13
2022-09-26T21:25:54.883Z,6.10
2022-09-26T21:28:27.584Z,8.20
2022-09-26T21:30:58.835Z,6.40
2022-09-26T21:33:25.996Z,6.53
2022-09-26T21:35:52.932Z,11.35
2022-09-26T21:38:20.965Z,8.70
2022-09-26T21:40:52.315Z,7.40
2022-09-26T21:43:24.621Z,10.75
2022-09-26T21:45:51.481Z,11.75
2022-09-26T21:48:18.293Z,8.15
2022-09-26T21:50:54.116Z,10.60
2022-09-26T21:53:42.838Z,8.82
2022-09-26T21:56:15.051Z,3.35
2022-09-26T21:58:43.254Z,9.88
2022-09-26T22:01:10.038Z,9.50
2022-09-26T22:03:37.250Z,8.05
2022-09-26T22:06:09.363Z,9.23
2022-09-26T22:08:40.094Z,8.32
2022-09-26T22:11:09.007Z,8.52
2022-09-26T22:13:37.042Z,5.05
2022-09-26T22:16:05.965Z,4.90
2022-09-26T22:18:34.111Z,8.10
2022-09-26T22:21:03.787Z,8.88
2022-09-26T22:23:34.495Z,7.88
2022-09-26T22:26:02.065Z,7.20
2022-09-26T22:28:29.546Z,4.60
2022-09-26T22:31:00.181Z,3.80
2022-09-26T22:33:26.905Z,4.70
2022-09-26T22:35:53.542Z,8.38
2022-09-26T22:38:20.181Z,5.07
2022-09-26T22:40:59.675Z,12.30
2022-09-26T22:43:26.952Z,10.15
2022-09-26T22:45:53.852Z,6.05
2022-09-26T22:48:20.564Z,7.13
2022-09-26T22:50:47.236Z,4.40
2022-09-26T22:53:13.889Z,5.32
2022-09-26T22:55:40.527Z,9.38
2022-09-26T22:58:07.172Z,4.55
2022-09-26T23:00:33.815Z,8.60
2022-09-26T23:03:00.478Z,2.65
2022-09-26T23:05:27.115Z,3.95
2022-09-26T23:07:54.704Z,6.55
2022-09-26T23:10:22.173Z,2.95
2022-09-26T23:12:50.534Z,4.43
2022-09-26T23:15:18.266Z,7.75
2022-09-26T23:17:46.133Z,3.47
2022-09-26T23:20:12.765Z,3.08
2022-09-26T23:22:39.764Z,8.27
2022-09-26T23:25:07.924Z,11.25
2022-09-26T23:27:34.927Z,3.70
2022-09-26T23:30:01.741Z,7.18
2022-09-26T23:32:28.428Z,5.13
2022-09-26T23:34:55.065Z,7.68
2022-09-26T23:37:21.721Z,6.40
2022-09-26T23:39:48.359Z,4.57
2022-09-26T23:42:15.095Z,4.68
2022-09-26T23:44:41.742Z,2.75
2022-09-26T23:47:08.451Z,2.78
2022-09-26T23:49:35.096Z,3.42
2022-09-26T23:52:02.582Z,2.72
2022-09-26T23:54:29.283Z,2.20
2022-09-26T23:56:55.941Z,4.35
2022-09-26T23:59:22.950Z,3.20
